sensor_id;sensor_type;location;lat;lon;timestamp;pressure;altitude;pressure_sealevel;temperature;humidity
11415;BME280;5763;42.714;23.244;2023-02-19T00:00:07;94841.00;;;10.43;44.36
11415;BME280;5763;42.714;23.244;2023-02-19T00:02:34;94850.41;;;10.42;44.42
11415;BME280;5763;42.714;23.244;2023-02-19T00:05:01;94842.63;;;10.41;44.54
11415;BME280;5763;42.714;23.244;2023-02-19T00:07:29;94858.41;;;10.37;44.92
11415;BME280;5763;42.714;23.244;2023-02-19T00:09:56;94830.22;;;10.27;44.41
11415;BME280;5763;42.714;23.244;2023-02-19T00:12:22;94837.53;;;10.30;44.53
11415;BME280;5763;42.714;23.244;2023-02-19T00:14:49;94825.78;;;10.42;44.02
11415;BME280;5763;42.714;23.244;2023-02-19T00:17:16;94831.09;;;10.24;44.61
11415;BME280;5763;42.714;23.244;2023-02-19T00:19:42;94828.25;;;10.28;44.27
11415;BME280;5763;42.714;23.244;2023-02-19T00:22:09;94829.53;;;10.36;44.36
11415;BME280;5763;42.714;23.244;2023-02-19T00:24:37;94820.31;;;10.42;44.01
11415;BME280;5763;42.714;23.244;2023-02-19T00:27:04;94810.03;;;10.34;44.39
11415;BME280;5763;42.714;23.244;2023-02-19T00:29:31;94810.06;;;10.55;43.21
11415;BME280;5763;42.714;23.244;2023-02-19T00:31:58;94811.50;;;10.69;43.20
11415;BME280;5763;42.714;23.244;2023-02-19T00:34:25;94821.56;;;10.72;43.31
11415;BME280;5763;42.714;23.244;2023-02-19T00:36:51;94810.41;;;10.66;43.37
11415;BME280;5763;42.714;23.244;2023-02-19T00:39:18;94816.22;;;10.68;43.25
11415;BME280;5763;42.714;23.244;2023-02-19T00:41:47;94801.28;;;10.60;43.69
11415;BME280;5763;42.714;23.244;2023-02-19T00:44:14;94803.34;;;10.47;43.96
11415;BME280;5763;42.714;23.244;2023-02-19T00:46:42;94795.06;;;10.38;44.06
11415;BME280;5763;42.714;23.244;2023-02-19T00:49:14;94787.09;;;10.31;44.66
11415;BME280;5763;42.714;23.244;2023-02-19T00:51:41;94772.53;;;10.34;44.36
11415;BME280;5763;42.714;23.244;2023-02-19T00:54:09;94769.94;;;10.52;43.82
11415;BME280;5763;42.714;23.244;2023-02-19T00:56:36;94777.28;;;10.64;43.84
11415;BME280;5763;42.714;23.244;2023-02-19T00:59:04;94783.56;;;10.74;43.38
11415;BME280;5763;42.714;23.244;2023-02-19T01:01:31;94783.34;;;10.90;42.78
11415;BME280;5763;42.714;23.244;2023-02-19T01:03:58;94777.81;;;11.11;42.27
11415;BME280;5763;42.714;23.244;2023-02-19T01:06:24;94780.63;;;11.29;41.65
11415;BME280;5763;42.714;23.244;2023-02-19T01:08:54;94787.41;;;11.64;40.76
11415;BME280;5763;42.714;23.244;2023-02-19T01:11:21;94785.31;;;11.77;40.41
11415;BME280;5763;42.714;23.244;2023-02-19T01:13:48;94778.66;;;11.96;39.82
11415;BME280;5763;42.714;23.244;2023-02-19T01:16:18;94775.91;;;12.23;39.29
11415;BME280;5763;42.714;23.244;2023-02-19T01:18:46;94756.84;;;12.20;39.17
11415;BME280;5763;42.714;23.244;2023-02-19T01:21:15;94770.88;;;12.40;39.12
11415;BME280;5763;42.714;23.244;2023-02-19T01:23:42;94781.38;;;12.23;39.81
11415;BME280;5763;42.714;23.244;2023-02-19T01:26:12;94783.06;;;12.03;40.17
11415;BME280;5763;42.714;23.244;2023-02-19T01:28:39;94765.06;;;11.75;40.36
11415;BME280;5763;42.714;23.244;2023-02-19T01:31:08;94785.78;;;11.76;40.62
11415;BME280;5763;42.714;23.244;2023-02-19T01:33:37;94790.34;;;11.70;40.32
11415;BME280;5763;42.714;23.244;2023-02-19T01:36:05;94793.81;;;11.61;40.73
11415;BME280;5763;42.714;23.244;2023-02-19T01:38:32;94797.09;;;11.47;41.21
11415;BME280;5763;42.714;23.244;2023-02-19T01:41:01;94800.00;;;11.44;41.03
11415;BME280;5763;42.714;23.244;2023-02-19T01:43:28;94806.38;;;11.41;40.60
11415;BME280;5763;42.714;23.244;2023-02-19T01:45:54;94812.66;;;11.50;40.72
11415;BME280;5763;42.714;23.244;2023-02-19T01:48:24;94811.88;;;11.50;40.27
11415;BME280;5763;42.714;23.244;2023-02-19T01:51:01;94819.72;;;11.60;40.11
11415;BME280;5763;42.714;23.244;2023-02-19T01:53:32;94814.56;;;11.71;39.94
11415;BME280;5763;42.714;23.244;2023-02-19T01:56:00;94818.06;;;11.81;39.49
11415;BME280;5763;42.714;23.244;2023-02-19T01:58:30;94807.56;;;11.88;39.34
11415;BME280;5763;42.714;23.244;2023-02-19T02:01:00;94805.75;;;11.94;39.04
11415;BME280;5763;42.714;23.244;2023-02-19T02:03:29;94812.91;;;11.92;39.40
11415;BME280;5763;42.714;23.244;2023-02-19T02:06:01;94810.16;;;11.92;39.00
11415;BME280;5763;42.714;23.244;2023-02-19T02:08:29;94810.66;;;11.90;38.92
11415;BME280;5763;42.714;23.244;2023-02-19T02:11:14;94807.72;;;12.03;38.92
11415;BME280;5763;42.714;23.244;2023-02-19T02:13:42;94810.66;;;12.08;38.87
11415;BME280;5763;42.714;23.244;2023-02-19T02:16:19;94816.13;;;12.08;38.82
11415;BME280;5763;42.714;23.244;2023-02-19T02:18:54;94816.16;;;12.17;38.43
11415;BME280;5763;42.714;23.244;2023-02-19T02:21:37;94810.66;;;12.08;39.04
11415;BME280;5763;42.714;23.244;2023-02-19T02:27:27;94828.00;;;11.96;38.96
11415;BME280;5763;42.714;23.244;2023-02-19T02:30:23;94823.72;;;11.77;40.55
11415;BME280;5763;42.714;23.244;2023-02-19T02:32:57;94826.28;;;11.32;41.56
11415;BME280;5763;42.714;23.244;2023-02-19T02:35:29;94822.41;;;11.12;42.37
11415;BME280;5763;42.714;23.244;2023-02-19T02:38:01;94827.38;;;11.04;42.88
11415;BME280;5763;42.714;23.244;2023-02-19T02:40:30;94826.06;;;10.87;42.87
11415;BME280;5763;42.714;23.244;2023-02-19T02:42:58;94837.47;;;10.86;43.39
11415;BME280;5763;42.714;23.244;2023-02-19T02:45:29;94835.47;;;10.86;43.26
11415;BME280;5763;42.714;23.244;2023-02-19T02:48:10;94833.91;;;10.76;43.53
11415;BME280;5763;42.714;23.244;2023-02-19T02:50:42;94838.25;;;10.65;44.09
11415;BME280;5763;42.714;23.244;2023-02-19T02:53:17;94831.31;;;10.51;44.34
11415;BME280;5763;42.714;23.244;2023-02-19T02:56:03;94824.50;;;10.56;44.37
11415;BME280;5763;42.714;23.244;2023-02-19T02:58:31;94844.38;;;10.47;44.40
11415;BME280;5763;42.714;23.244;2023-02-19T03:01:04;94837.47;;;10.43;44.58
11415;BME280;5763;42.714;23.244;2023-02-19T03:04:02;94834.78;;;10.30;44.51
11415;BME280;5763;42.714;23.244;2023-02-19T03:06:32;94840.78;;;10.38;44.75
11415;BME280;5763;42.714;23.244;2023-02-19T03:09:07;94845.69;;;10.21;45.09
11415;BME280;5763;42.714;23.244;2023-02-19T03:11:38;94842.34;;;10.26;44.80
11415;BME280;5763;42.714;23.244;2023-02-19T03:14:28;94841.72;;;10.22;44.80
11415;BME280;5763;42.714;23.244;2023-02-19T03:17:19;94856.28;;;10.19;45.02
11415;BME280;5763;42.714;23.244;2023-02-19T03:20:08;94851.06;;;10.12;45.23
11415;BME280;5763;42.714;23.244;2023-02-19T03:22:37;94852.84;;;10.06;45.69
11415;BME280;5763;42.714;23.244;2023-02-19T03:25:09;94856.31;;;10.07;45.33
11415;BME280;5763;42.714;23.244;2023-02-19T03:28:08;94869.69;;;9.92;46.12
11415;BME280;5763;42.714;23.244;2023-02-19T03:30:41;94868.16;;;9.91;45.98
11415;BME280;5763;42.714;23.244;2023-02-19T03:33:13;94874.59;;;9.85;46.07
11415;BME280;5763;42.714;23.244;2023-02-19T03:35:44;94870.78;;;9.82;45.88
11415;BME280;5763;42.714;23.244;2023-02-19T03:38:14;94881.72;;;9.82;46.13
11415;BME280;5763;42.714;23.244;2023-02-19T03:40:50;94889.03;;;9.85;45.78
11415;BME280;5763;42.714;23.244;2023-02-19T03:43:23;94883.56;;;9.85;45.98
11415;BME280;5763;42.714;23.244;2023-02-19T03:45:56;94877.53;;;9.90;45.61
11415;BME280;5763;42.714;23.244;2023-02-19T03:48:32;94881.81;;;9.91;45.52
11415;BME280;5763;42.714;23.244;2023-02-19T03:51:21;94887.28;;;10.04;45.20
11415;BME280;5763;42.714;23.244;2023-02-19T03:53:57;94888.69;;;10.08;45.16
11415;BME280;5763;42.714;23.244;2023-02-19T03:56:32;94885.09;;;10.11;45.15
11415;BME280;5763;42.714;23.244;2023-02-19T03:59:04;94897.53;;;10.00;45.41
11415;BME280;5763;42.714;23.244;2023-02-19T04:01:38;94890.66;;;9.95;45.52
11415;BME280;5763;42.714;23.244;2023-02-19T04:04:12;94891.84;;;9.94;45.64
11415;BME280;5763;42.714;23.244;2023-02-19T04:06:43;94905.75;;;9.87;46.00
11415;BME280;5763;42.714;23.244;2023-02-19T04:09:13;94901.59;;;9.83;45.89
11415;BME280;5763;42.714;23.244;2023-02-19T04:11:40;94901.16;;;9.84;45.98
11415;BME280;5763;42.714;23.244;2023-02-19T04:14:10;94906.31;;;9.82;46.17
11415;BME280;5763;42.714;23.244;2023-02-19T04:16:40;94907.94;;;9.92;45.52
11415;BME280;5763;42.714;23.244;2023-02-19T04:19:12;94900.94;;;9.91;45.90
11415;BME280;5763;42.714;23.244;2023-02-19T04:21:41;94912.84;;;9.97;45.73
11415;BME280;5763;42.714;23.244;2023-02-19T04:24:13;94908.81;;;9.89;45.98
11415;BME280;5763;42.714;23.244;2023-02-19T04:26:41;94910.88;;;9.98;45.67
11415;BME280;5763;42.714;23.244;2023-02-19T04:29:09;94911.00;;;9.94;46.11
11415;BME280;5763;42.714;23.244;2023-02-19T04:31:36;94907.72;;;9.87;46.16
11415;BME280;5763;42.714;23.244;2023-02-19T04:34:03;94908.38;;;9.91;46.23
11415;BME280;5763;42.714;23.244;2023-02-19T04:36:32;94911.22;;;9.87;46.44
11415;BME280;5763;42.714;23.244;2023-02-19T04:38:59;94919.19;;;9.94;45.99
11415;BME280;5763;42.714;23.244;2023-02-19T04:41:26;94924.34;;;9.92;46.47
11415;BME280;5763;42.714;23.244;2023-02-19T04:43:53;94921.72;;;9.89;46.28
11415;BME280;5763;42.714;23.244;2023-02-19T04:46:19;94937.78;;;9.99;45.88
11415;BME280;5763;42.714;23.244;2023-02-19T04:48:46;94930.34;;;10.00;46.09
11415;BME280;5763;42.714;23.244;2023-02-19T04:51:13;94929.81;;;9.92;46.37
11415;BME280;5763;42.714;23.244;2023-02-19T04:53:41;94929.69;;;9.96;46.33
11415;BME280;5763;42.714;23.244;2023-02-19T04:56:10;94930.47;;;9.96;46.17
11415;BME280;5763;42.714;23.244;2023-02-19T04:58:37;94940.84;;;10.01;46.07
11415;BME280;5763;42.714;23.244;2023-02-19T05:01:04;94930.78;;;9.98;46.07
11415;BME280;5763;42.714;23.244;2023-02-19T05:03:32;94929.69;;;9.96;46.12
11415;BME280;5763;42.714;23.244;2023-02-19T05:06:01;94931.09;;;10.00;45.91
11415;BME280;5763;42.714;23.244;2023-02-19T05:08:28;94939.78;;;10.11;45.42
11415;BME280;5763;42.714;23.244;2023-02-19T05:10:58;94931.00;;;10.16;45.06
11415;BME280;5763;42.714;23.244;2023-02-19T05:13:25;94940.75;;;10.17;45.17
11415;BME280;5763;42.714;23.244;2023-02-19T05:15:56;94946.41;;;10.23;44.75
11415;BME280;5763;42.714;23.244;2023-02-19T05:18:24;94944.44;;;10.23;44.64
11415;BME280;5763;42.714;23.244;2023-02-19T05:20:52;94948.69;;;10.24;44.62
11415;BME280;5763;42.714;23.244;2023-02-19T05:23:20;94951.81;;;10.14;45.12
11415;BME280;5763;42.714;23.244;2023-02-19T05:25:47;94946.88;;;10.09;45.02
11415;BME280;5763;42.714;23.244;2023-02-19T05:28:16;94941.84;;;10.20;44.35
11415;BME280;5763;42.714;23.244;2023-02-19T05:30:43;94954.06;;;10.15;44.61
11415;BME280;5763;42.714;23.244;2023-02-19T05:33:10;94946.88;;;10.21;44.32
11415;BME280;5763;42.714;23.244;2023-02-19T05:35:42;94938.00;;;10.17;44.59
11415;BME280;5763;42.714;23.244;2023-02-19T05:38:09;94961.16;;;10.25;44.89
11415;BME280;5763;42.714;23.244;2023-02-19T05:40:36;94948.78;;;10.33;44.82
11415;BME280;5763;42.714;23.244;2023-02-19T05:43:03;94949.44;;;10.37;45.22
11415;BME280;5763;42.714;23.244;2023-02-19T05:45:31;94950.50;;;10.52;44.36
11415;BME280;5763;42.714;23.244;2023-02-19T05:47:59;94939.94;;;10.63;44.28
11415;BME280;5763;42.714;23.244;2023-02-19T05:50:26;94943.31;;;10.67;44.23
11415;BME280;5763;42.714;23.244;2023-02-19T05:52:53;94953.53;;;10.88;44.14
11415;BME280;5763;42.714;23.244;2023-02-19T05:55:19;94959.06;;;10.97;43.82
11415;BME280;5763;42.714;23.244;2023-02-19T05:57:47;94960.66;;;11.07;43.70
11415;BME280;5763;42.714;23.244;2023-02-19T06:00:16;94969.13;;;11.22;43.31
11415;BME280;5763;42.714;23.244;2023-02-19T06:02:45;94974.03;;;11.27;43.26
11415;BME280;5763;42.714;23.244;2023-02-19T06:05:12;94983.38;;;11.38;43.01
11415;BME280;5763;42.714;23.244;2023-02-19T06:07:39;94993.19;;;11.48;43.11
11415;BME280;5763;42.714;23.244;2023-02-19T06:10:07;94985.16;;;11.54;43.07
11415;BME280;5763;42.714;23.244;2023-02-19T06:12:35;94982.13;;;11.52;43.32
11415;BME280;5763;42.714;23.244;2023-02-19T06:15:03;94977.38;;;11.52;43.32
11415;BME280;5763;42.714;23.244;2023-02-19T06:17:30;94979.97;;;11.56;43.44
11415;BME280;5763;42.714;23.244;2023-02-19T06:19:58;94999.56;;;11.67;43.76
11415;BME280;5763;42.714;23.244;2023-02-19T06:22:26;94988.00;;;11.63;43.79
11415;BME280;5763;42.714;23.244;2023-02-19T06:24:53;94991.53;;;11.72;43.37
11415;BME280;5763;42.714;23.244;2023-02-19T06:27:19;94990.63;;;11.75;43.32
11415;BME280;5763;42.714;23.244;2023-02-19T06:29:46;94993.53;;;11.81;43.15
11415;BME280;5763;42.714;23.244;2023-02-19T06:32:13;94995.44;;;11.93;42.91
11415;BME280;5763;42.714;23.244;2023-02-19T06:34:40;94990.13;;;11.98;42.70
11415;BME280;5763;42.714;23.244;2023-02-19T06:37:08;94998.22;;;12.02;42.32
11415;BME280;5763;42.714;23.244;2023-02-19T06:39:35;94989.25;;;12.10;42.18
11415;BME280;5763;42.714;23.244;2023-02-19T06:42:02;94994.28;;;12.12;41.86
11415;BME280;5763;42.714;23.244;2023-02-19T06:44:29;94996.00;;;12.18;41.98
11415;BME280;5763;42.714;23.244;2023-02-19T06:46:56;95002.75;;;11.96;42.47
11415;BME280;5763;42.714;23.244;2023-02-19T06:49:23;94990.06;;;11.89;42.22
11415;BME280;5763;42.714;23.244;2023-02-19T06:51:49;94997.13;;;11.90;42.22
11415;BME280;5763;42.714;23.244;2023-02-19T06:54:17;94997.06;;;11.81;42.44
11415;BME280;5763;42.714;23.244;2023-02-19T06:56:44;95009.25;;;11.80;42.48
11415;BME280;5763;42.714;23.244;2023-02-19T06:59:12;95009.84;;;11.84;42.34
11415;BME280;5763;42.714;23.244;2023-02-19T07:01:41;95009.56;;;11.82;43.08
11415;BME280;5763;42.714;23.244;2023-02-19T07:04:09;95013.19;;;11.79;43.17
11415;BME280;5763;42.714;23.244;2023-02-19T07:06:37;95013.38;;;11.85;43.45
11415;BME280;5763;42.714;23.244;2023-02-19T07:09:05;95008.03;;;11.81;43.43
11415;BME280;5763;42.714;23.244;2023-02-19T07:11:34;95010.91;;;11.78;43.65
11415;BME280;5763;42.714;23.244;2023-02-19T07:14:04;95006.66;;;11.86;43.68
11415;BME280;5763;42.714;23.244;2023-02-19T07:16:32;95012.78;;;11.90;43.58
11415;BME280;5763;42.714;23.244;2023-02-19T07:19:00;94998.28;;;11.80;43.51
11415;BME280;5763;42.714;23.244;2023-02-19T07:21:27;94990.25;;;11.95;43.66
11415;BME280;5763;42.714;23.244;2023-02-19T07:23:54;94990.41;;;12.00;43.71
11415;BME280;5763;42.714;23.244;2023-02-19T07:26:22;94988.94;;;12.08;43.48
11415;BME280;5763;42.714;23.244;2023-02-19T07:28:50;94990.16;;;12.07;43.68
11415;BME280;5763;42.714;23.244;2023-02-19T07:31:20;94984.69;;;12.07;43.79
11415;BME280;5763;42.714;23.244;2023-02-19T07:33:47;94996.66;;;12.31;43.77
11415;BME280;5763;42.714;23.244;2023-02-19T07:36:15;94987.84;;;12.54;43.39
11415;BME280;5763;42.714;23.244;2023-02-19T07:38:42;94987.44;;;12.65;43.37
11415;BME280;5763;42.714;23.244;2023-02-19T07:41:09;94979.34;;;12.79;43.20
11415;BME280;5763;42.714;23.244;2023-02-19T07:43:37;94980.72;;;12.84;43.62
11415;BME280;5763;42.714;23.244;2023-02-19T07:46:06;94985.31;;;13.05;43.39
11415;BME280;5763;42.714;23.244;2023-02-19T07:48:34;94978.00;;;13.29;42.88
11415;BME280;5763;42.714;23.244;2023-02-19T07:51:03;94975.50;;;13.58;42.62
11415;BME280;5763;42.714;23.244;2023-02-19T07:53:31;94970.09;;;13.81;42.08
11415;BME280;5763;42.714;23.244;2023-02-19T07:55:59;94971.50;;;14.09;41.78
11415;BME280;5763;42.714;23.244;2023-02-19T07:58:26;94974.38;;;14.24;41.23
11415;BME280;5763;42.714;23.244;2023-02-19T08:00:53;94969.19;;;14.49;40.55
11415;BME280;5763;42.714;23.244;2023-02-19T08:03:22;94972.41;;;14.71;40.11
11415;BME280;5763;42.714;23.244;2023-02-19T08:05:48;94972.56;;;14.91;39.85
11415;BME280;5763;42.714;23.244;2023-02-19T08:08:18;94977.41;;;15.20;39.38
11415;BME280;5763;42.714;23.244;2023-02-19T08:10:46;94969.41;;;15.45;37.39
11415;BME280;5763;42.714;23.244;2023-02-19T08:13:30;94971.03;;;15.52;36.61
11415;BME280;5763;42.714;23.244;2023-02-19T08:16:10;94985.69;;;15.72;36.16
11415;BME280;5763;42.714;23.244;2023-02-19T08:18:38;94979.41;;;15.72;35.65
11415;BME280;5763;42.714;23.244;2023-02-19T08:21:05;94975.78;;;15.80;35.37
11415;BME280;5763;42.714;23.244;2023-02-19T08:23:32;94974.25;;;15.79;35.67
11415;BME280;5763;42.714;23.244;2023-02-19T08:25:59;94980.47;;;15.74;35.46
11415;BME280;5763;42.714;23.244;2023-02-19T08:28:27;94981.19;;;15.89;35.58
11415;BME280;5763;42.714;23.244;2023-02-19T08:30:58;94962.44;;;16.08;35.12
11415;BME280;5763;42.714;23.244;2023-02-19T08:33:25;94969.59;;;16.34;34.94
11415;BME280;5763;42.714;23.244;2023-02-19T08:35:53;94969.34;;;16.67;34.14
11415;BME280;5763;42.714;23.244;2023-02-19T08:38:20;94957.00;;;16.83;33.90
11415;BME280;5763;42.714;23.244;2023-02-19T08:40:47;94970.03;;;17.22;33.69
11415;BME280;5763;42.714;23.244;2023-02-19T08:43:15;94966.28;;;17.45;33.17
11415;BME280;5763;42.714;23.244;2023-02-19T08:45:44;94961.13;;;17.83;32.91
11415;BME280;5763;42.714;23.244;2023-02-19T08:48:11;94954.31;;;18.10;32.12
11415;BME280;5763;42.714;23.244;2023-02-19T08:50:39;94956.22;;;18.29;31.53
11415;BME280;5763;42.714;23.244;2023-02-19T08:53:07;94957.31;;;18.38;31.54
11415;BME280;5763;42.714;23.244;2023-02-19T08:55:36;94954.16;;;18.24;32.07
11415;BME280;5763;42.714;23.244;2023-02-19T08:58:03;94952.09;;;18.14;32.09
11415;BME280;5763;42.714;23.244;2023-02-19T09:00:30;94943.53;;;18.17;31.83
11415;BME280;5763;42.714;23.244;2023-02-19T09:02:57;94955.28;;;18.33;31.51
11415;BME280;5763;42.714;23.244;2023-02-19T09:05:24;94940.66;;;18.32;31.53
11415;BME280;5763;42.714;23.244;2023-02-19T09:07:51;94938.72;;;18.44;31.08
11415;BME280;5763;42.714;23.244;2023-02-19T09:10:19;94941.06;;;18.56;31.69
11415;BME280;5763;42.714;23.244;2023-02-19T09:12:46;94937.66;;;18.78;31.69
11415;BME280;5763;42.714;23.244;2023-02-19T09:15:13;94928.16;;;19.01;31.37
11415;BME280;5763;42.714;23.244;2023-02-19T09:17:39;94928.47;;;19.14;31.18
11415;BME280;5763;42.714;23.244;2023-02-19T09:20:07;94930.97;;;19.12;31.10
11415;BME280;5763;42.714;23.244;2023-02-19T09:22:34;94931.09;;;19.34;30.47
11415;BME280;5763;42.714;23.244;2023-02-19T09:25:01;94927.09;;;19.51;30.22
11415;BME280;5763;42.714;23.244;2023-02-19T09:27:29;94931.38;;;19.58;30.05
11415;BME280;5763;42.714;23.244;2023-02-19T09:29:57;94927.13;;;19.79;29.69
11415;BME280;5763;42.714;23.244;2023-02-19T09:32:24;94917.53;;;19.85;29.47
11415;BME280;5763;42.714;23.244;2023-02-19T09:34:51;94916.53;;;19.88;29.70
11415;BME280;5763;42.714;23.244;2023-02-19T09:37:18;94917.06;;;20.20;29.52
11415;BME280;5763;42.714;23.244;2023-02-19T09:39:45;94927.91;;;20.07;29.35
11415;BME280;5763;42.714;23.244;2023-02-19T09:42:15;94919.78;;;19.59;30.01
11415;BME280;5763;42.714;23.244;2023-02-19T09:44:46;94916.53;;;19.83;29.92
11415;BME280;5763;42.714;23.244;2023-02-19T09:47:16;94911.47;;;19.98;30.04
11415;BME280;5763;42.714;23.244;2023-02-19T09:49:46;94915.00;;;20.04;29.81
11415;BME280;5763;42.714;23.244;2023-02-19T09:52:21;94905.94;;;20.20;29.85
11415;BME280;5763;42.714;23.244;2023-02-19T09:54:50;94902.91;;;20.18;29.18
11415;BME280;5763;42.714;23.244;2023-02-19T09:57:23;94892.78;;;20.31;28.85
11415;BME280;5763;42.714;23.244;2023-02-19T09:59:55;94892.78;;;20.37;28.12
11415;BME280;5763;42.714;23.244;2023-02-19T10:02:26;94878.84;;;20.48;27.88
11415;BME280;5763;42.714;23.244;2023-02-19T10:04:56;94884.63;;;20.72;27.40
11415;BME280;5763;42.714;23.244;2023-02-19T10:07:24;94879.28;;;20.68;27.09
11415;BME280;5763;42.714;23.244;2023-02-19T10:25:57;94830.22;;;21.98;25.70
11415;BME280;5763;42.714;23.244;2023-02-19T10:28:27;94828.47;;;21.95;25.50
11415;BME280;5763;42.714;23.244;2023-02-19T10:30:56;94814.63;;;21.84;25.50
11415;BME280;5763;42.714;23.244;2023-02-19T10:33:24;94821.56;;;22.01;25.33
11415;BME280;5763;42.714;23.244;2023-02-19T10:35:54;94815.53;;;21.97;25.10
11415;BME280;5763;42.714;23.244;2023-02-19T10:38:23;94796.53;;;21.96;24.98
11415;BME280;5763;42.714;23.244;2023-02-19T10:40:59;94794.22;;;22.00;25.40
11415;BME280;5763;42.714;23.244;2023-02-19T10:43:28;94797.59;;;22.41;24.89
11415;BME280;5763;42.714;23.244;2023-02-19T10:46:01;94784.75;;;22.56;24.79
11415;BME280;5763;42.714;23.244;2023-02-19T10:48:31;94786.00;;;22.79;24.58
11415;BME280;5763;42.714;23.244;2023-02-19T10:51:01;94782.59;;;23.05;24.13
11415;BME280;5763;42.714;23.244;2023-02-19T10:53:40;94775.03;;;23.00;24.32
11415;BME280;5763;42.714;23.244;2023-02-19T11:20:47;94719.97;;;23.95;22.28
11415;BME280;5763;42.714;23.244;2023-02-19T11:23:17;94717.84;;;24.27;22.50
11415;BME280;5763;42.714;23.244;2023-02-19T11:25:47;94704.06;;;24.16;22.25
11415;BME280;5763;42.714;23.244;2023-02-19T11:28:26;94707.28;;;24.33;22.16
11415;BME280;5763;42.714;23.244;2023-02-19T11:30:54;94699.31;;;24.37;21.39
11415;BME280;5763;42.714;23.244;2023-02-19T11:33:25;94690.25;;;24.70;20.91
11415;BME280;5763;42.714;23.244;2023-02-19T11:36:21;94684.03;;;24.97;20.60
11415;BME280;5763;42.714;23.244;2023-02-19T11:38:50;94682.19;;;25.00;20.95
11415;BME280;5763;42.714;23.244;2023-02-19T11:41:24;94678.84;;;25.01;20.92
11415;BME280;5763;42.714;23.244;2023-02-19T11:44:06;94666.41;;;24.89;20.31
11415;BME280;5763;42.714;23.244;2023-02-19T11:46:41;94673.34;;;24.96;20.48
11415;BME280;5763;42.714;23.244;2023-02-19T11:49:19;94678.16;;;25.08;20.22
11415;BME280;5763;42.714;23.244;2023-02-19T11:52:12;94670.06;;;25.18;20.16
11415;BME280;5763;42.714;23.244;2023-02-19T11:54:51;94670.44;;;25.01;20.21
11415;BME280;5763;42.714;23.244;2023-02-19T11:57:41;94663.41;;;25.08;19.97
11415;BME280;5763;42.714;23.244;2023-02-19T12:00:19;94672.56;;;25.08;19.83
11415;BME280;5763;42.714;23.244;2023-02-19T12:03:10;94651.28;;;25.26;19.66
11415;BME280;5763;42.714;23.244;2023-02-19T12:05:49;94646.84;;;25.51;19.40
11415;BME280;5763;42.714;23.244;2023-02-19T12:08:42;94640.63;;;25.73;19.14
11415;BME280;5763;42.714;23.244;2023-02-19T12:11:25;94638.59;;;25.94;18.95
11415;BME280;5763;42.714;23.244;2023-02-19T12:14:13;94626.75;;;26.16;18.88
11415;BME280;5763;42.714;23.244;2023-02-19T12:16:48;94625.72;;;26.41;18.95
11415;BME280;5763;42.714;23.244;2023-02-19T12:19:31;94628.59;;;26.13;18.41
11415;BME280;5763;42.714;23.244;2023-02-19T12:22:13;94620.38;;;26.15;18.75
11415;BME280;5763;42.714;23.244;2023-02-19T12:27:54;94607.19;;;26.03;18.39
11415;BME280;5763;42.714;23.244;2023-02-19T12:30:39;94601.56;;;26.31;18.09
11415;BME280;5763;42.714;23.244;2023-02-19T12:33:30;94587.25;;;26.57;17.89
11415;BME280;5763;42.714;23.244;2023-02-19T12:36:07;94595.25;;;26.53;17.94
11415;BME280;5763;42.714;23.244;2023-02-19T12:38:42;94588.50;;;26.41;18.07
11415;BME280;5763;42.714;23.244;2023-02-19T12:41:19;94584.31;;;26.27;18.26
11415;BME280;5763;42.714;23.244;2023-02-19T12:43:54;94578.47;;;26.60;17.97
11415;BME280;5763;42.714;23.244;2023-02-19T12:46:28;94565.44;;;27.00;17.83
11415;BME280;5763;42.714;23.244;2023-02-19T12:49:00;94549.31;;;27.08;17.84
11415;BME280;5763;42.714;23.244;2023-02-19T12:51:35;94551.06;;;27.19;17.52
11415;BME280;5763;42.714;23.244;2023-02-19T12:54:09;94548.41;;;27.21;17.27
11415;BME280;5763;42.714;23.244;2023-02-19T12:56:41;94535.13;;;27.29;17.29
11415;BME280;5763;42.714;23.244;2023-02-19T12:59:14;94531.72;;;27.00;17.51
11415;BME280;5763;42.714;23.244;2023-02-19T13:01:47;94539.75;;;26.74;17.55
11415;BME280;5763;42.714;23.244;2023-02-19T13:04:21;94532.84;;;27.12;17.28
11415;BME280;5763;42.714;23.244;2023-02-19T13:06:53;94529.47;;;27.14;17.56
11415;BME280;5763;42.714;23.244;2023-02-19T13:09:27;94519.56;;;26.90;17.37
11415;BME280;5763;42.714;23.244;2023-02-19T13:11:59;94519.94;;;27.09;17.48
11415;BME280;5763;42.714;23.244;2023-02-19T13:14:33;94518.06;;;27.04;17.43
11415;BME280;5763;42.714;23.244;2023-02-19T13:17:09;94507.75;;;26.92;17.28
11415;BME280;5763;42.714;23.244;2023-02-19T13:19:41;94505.50;;;26.83;17.63
11415;BME280;5763;42.714;23.244;2023-02-19T13:22:17;94509.44;;;26.95;17.37
11415;BME280;5763;42.714;23.244;2023-02-19T13:25:05;94485.84;;;27.13;17.57
11415;BME280;5763;42.714;23.244;2023-02-19T13:27:42;94489.38;;;26.91;17.31
11415;BME280;5763;42.714;23.244;2023-02-19T13:30:32;94490.34;;;26.86;17.46
11415;BME280;5763;42.714;23.244;2023-02-19T13:33:13;94477.97;;;26.66;17.66
11415;BME280;5763;42.714;23.244;2023-02-19T13:38:46;94462.63;;;26.82;17.77
11415;BME280;5763;42.714;23.244;2023-02-19T13:41:19;94458.50;;;26.91;17.68
11415;BME280;5763;42.714;23.244;2023-02-19T13:43:54;94463.28;;;26.38;17.98
11415;BME280;5763;42.714;23.244;2023-02-19T13:46:23;94472.19;;;25.99;18.26
11415;BME280;5763;42.714;23.244;2023-02-19T13:52:39;94471.31;;;25.12;18.86
11415;BME280;5763;42.714;23.244;2023-02-19T13:55:44;94470.94;;;24.47;19.41
11415;BME280;5763;42.714;23.244;2023-02-19T14:01:18;94449.31;;;23.08;20.87
11415;BME280;5763;42.714;23.244;2023-02-19T14:03:53;94452.81;;;22.69;21.48
11415;BME280;5763;42.714;23.244;2023-02-19T14:06:20;94409.03;;;22.33;21.61
11415;BME280;5763;42.714;23.244;2023-02-19T14:08:50;94440.56;;;22.28;22.18
11415;BME280;5763;42.714;23.244;2023-02-19T14:12:00;94445.97;;;22.07;22.50
11415;BME280;5763;42.714;23.244;2023-02-19T14:14:33;94445.84;;;22.00;22.76
11415;BME280;5763;42.714;23.244;2023-02-19T14:17:03;94443.06;;;22.00;22.80
11415;BME280;5763;42.714;23.244;2023-02-19T14:19:57;94429.34;;;22.33;22.69